Terminal Aerodrome Forecast
Issued by NWS

Home | Current Version | Previous Version | Text Only | Print | Product List | Glossary On
Versions: 1 2 3 4 5 6 7 8 9 10 11 12 13 14 15 16 17 18 19 20 21
000
FTUS41 KBGM 302300
TAFELM
TAF
KELM 302328Z 3100/3124 23004KT P6SM SCT060 BKN120
     FM310600 VRB02KT 5SM BR BKN120
      TEMPO 3108/3112 1 1/2SM BR FEW002 SCT120
     FM311200 24006KT 6SM BR SCT030 BKN070
      TEMPO 3112/3116 3SM -SHRA BR OVC030
     FM311600 26010KT P6SM SCT050 BKN120=

USA.gov is the U.S. government's official web portal to all federal, state and local government web resources and services.